Time;durP1;ratioP1;P1;durP2;ratioP2;P2;SDS_P1;SDS_P2;PMS_P1;PMS_P2;Temp;Humidity;BMP_temperature;BMP_pressure;BME280_temperature;BME280_humidity;BME280_pressure;Samples;Min_cycle;Max_cycle;Signal;HPM_P1;HPM_P2
2022/10/25 00:00:02;;;;;;;;;;;;;;;;;;5132643;27;19917;-59
2022/10/25 00:02:33;;;;;;;;;;;;;;;;;;5132308;27;19919;-59
2022/10/25 00:04:58;;;;;;;;;;;;;;;;;;5132788;27;20274;-58
2022/10/25 00:07:23;;;;;;;;;;;;;;;;;;5131793;27;20291;-59
2022/10/25 00:09:48;;;;;;;;;;;;;;;;;;5132490;27;19908;-58
2022/10/25 00:12:13;;;;;;;;;;;;;;;;;;5131934;27;19948;-58
2022/10/25 00:14:38;;;;;;;;;;;;;;;;;;5132545;27;19951;-59
2022/10/25 00:17:03;;;;;;;;;;;;;;;;;;5132183;27;20266;-59
2022/10/25 00:19:28;;;;;;;;;;;;;;;;;;5132557;27;19908;-59
2022/10/25 00:21:53;;;;;;;;;;;;;;;;;;5132390;27;19915;-59
2022/10/25 00:24:18;;;;;;;;;;;;;;;;;;5131998;27;19908;-58
2022/10/25 00:26:43;;;;;;;;;;;;;;;;;;5132260;28;20316;-59
2022/10/25 00:29:08;;;;;;;;;;;;;;;;;;5132502;28;20009;-59
2022/10/25 00:31:34;;;;;;;;;;;;;;;;;;5131788;28;19924;-59
2022/10/25 00:33:59;;;;;;;;;;;;;;;;;;5132313;28;19907;-59
2022/10/25 00:36:24;;;;;;;;;;;;;;;;;;5131940;28;20281;-59
2022/10/25 00:38:49;;;;;;;;;;;;;;;;;;5129861;28;19907;-59
2022/10/25 00:41:14;;;;;;;;;;;;;;;;;;5132067;28;19915;-59
2022/10/25 00:43:39;;;;;;;;;;;;;;;;;;5132364;28;19915;-59
2022/10/25 00:46:04;;;;;;;;;;;;;;;;;;5132038;28;20002;-59
2022/10/25 00:48:29;;;;;;;;;;;;;;;;;;5131951;28;19911;-59
2022/10/25 00:50:54;;;;;;;;;;;;;;;;;;5132073;28;20022;-59
2022/10/25 00:53:19;;;;;;;;;;;;;;;;;;5132195;28;20350;-59
2022/10/25 00:55:45;;;;;;;;;;;;;;;;;;5132153;28;19915;-59
2022/10/25 00:58:10;;;;;;;;;;;;;;;;;;5131968;28;19953;-59
2022/10/25 01:00:35;;;;;;;;;;;;;;;;;;5131525;28;20292;-59
2022/10/25 01:03:00;;;;;;;;;;;;;;;;;;5131976;28;20018;-59
2022/10/25 01:05:25;;;;;;;;;;;;;;;;;;5132055;28;19908;-59
2022/10/25 01:07:50;;;;;;;;;;;;;;;;;;5129513;28;19907;-59
2022/10/25 01:10:15;;;;;;;;;;;;;;;;;;5132011;28;19908;-59
2022/10/25 01:12:40;;;;;;;;;;;;;;;;;;5131754;28;19916;-59
2022/10/25 01:15:05;;;;;;;;;;;;;;;;;;5131969;28;20487;-59
2022/10/25 01:17:30;;;;;;;;;;;;;;;;;;5131732;28;19952;-59
2022/10/25 01:19:55;;;;;;;;;;;;;;;;;;5131788;28;19908;-59
2022/10/25 01:22:20;;;;;;;;;;;;;;;;;;5131460;28;19910;-59
2022/10/25 01:24:46;;;;;;;;;;;;;;;;;;5131998;28;19907;-59
2022/10/25 01:27:11;;;;;;;;;;;;;;;;;;5131132;28;19915;-59
2022/10/25 01:29:36;;;;;;;;;;;;;;;;;;5129730;28;20672;-59
2022/10/25 01:32:01;;;;;;;;;;;;;;;;;;5131631;28;20006;-59
2022/10/25 01:34:26;;;;;;;;;;;;;;;;;;5131800;27;19911;-59
2022/10/25 01:36:51;;;;;;;;;;;;;;;;;;5135181;27;19915;-59
2022/10/25 01:39:16;;;;;;;;;;;;;;;;;;5135351;27;20259;-59
2022/10/25 01:41:41;;;;;;;;;;;;;;;;;;5135643;27;19907;-59
2022/10/25 01:44:06;;;;;;;;;;;;;;;;;;5135431;27;20010;-59
2022/10/25 01:46:31;;;;;;;;;;;;;;;;;;5135281;27;19956;-59
2022/10/25 01:48:56;;;;;;;;;;;;;;;;;;5135184;27;20286;-59
2022/10/25 01:51:21;;;;;;;;;;;;;;;;;;5135310;27;19915;-60
2022/10/25 01:53:47;;;;;;;;;;;;;;;;;;5135302;27;19907;-59
2022/10/25 01:56:12;;;;;;;;;;;;;;;;;;5134992;27;19984;-59
2022/10/25 01:58:37;;;;;;;;;;;;;;;;;;5134220;27;20285;-59
2022/10/25 02:01:02;;;;;;;;;;;;;;;;;;5135217;27;19914;-59
2022/10/25 02:03:27;;;;;;;;;;;;;;;;;;5134990;27;19926;-59
2022/10/25 02:05:52;;;;;;;;;;;;;;;;;;5134874;27;19915;-59
2022/10/25 02:08:17;;;;;;;;;;;;;;;;;;5134498;27;19980;-59
2022/10/25 02:10:42;;;;;;;;;;;;;;;;;;5134883;27;19907;-59
2022/10/25 02:13:07;;;;;;;;;;;;;;;;;;5134705;27;19912;-59
2022/10/25 02:15:32;;;;;;;;;;;;;;;;;;5134494;27;20299;-59
2022/10/25 02:17:58;;;;;;;;;;;;;;;;;;5134791;27;19911;-60
2022/10/25 02:20:23;;;;;;;;;;;;;;;;;;5134699;27;19986;-59
2022/10/25 02:22:48;;;;;;;;;;;;;;;;;;5134297;27;20009;-59
2022/10/25 02:25:13;;;;;;;;;;;;;;;;;;5134335;27;20319;-60
2022/10/25 02:27:38;;;;;;;;;;;;;;;;;;5134193;27;19911;-59
2022/10/25 02:30:03;;;;;;;;;;;;;;;;;;5134243;27;19922;-59
2022/10/25 02:32:28;;;;;;;;;;;;;;;;;;5134140;27;19912;-59
2022/10/25 02:34:53;;;;;;;;;;;;;;;;;;5134186;27;20378;-59
2022/10/25 02:37:18;;;;;;;;;;;;;;;;;;5134216;27;19972;-59
2022/10/25 02:39:43;;;;;;;;;;;;;;;;;;5134316;27;19917;-59
2022/10/25 02:42:08;;;;;;;;;;;;;;;;;;5134512;27;19907;-59
2022/10/25 02:44:33;;;;;;;;;;;;;;;;;;5134077;27;20251;-59
2022/10/25 02:46:58;;;;;;;;;;;;;;;;;;5132682;27;19913;-59
2022/10/25 02:49:24;;;;;;;;;;;;;;;;;;5134008;27;20410;-59
2022/10/25 02:51:49;;;;;;;;;;;;;;;;;;5133961;27;19908;-58
2022/10/25 02:54:14;;;;;;;;;;;;;;;;;;5133898;27;20415;-59
2022/10/25 02:56:39;;;;;;;;;;;;;;;;;;5133880;27;19911;-59
2022/10/25 02:59:04;;;;;;;;;;;;;;;;;;5133542;27;19907;-59
2022/10/25 03:01:29;;;;;;;;;;;;;;;;;;5133403;27;20014;-61
2022/10/25 03:03:54;;;;;;;;;;;;;;;;;;5133758;27;19933;-60
2022/10/25 03:06:19;;;;;;;;;;;;;;;;;;5133671;27;19918;-60
2022/10/25 03:08:45;;;;;;;;;;;;;;;;;;5133248;27;19919;-61
2022/10/25 03:11:10;;;;;;;;;;;;;;;;;;5133804;27;19907;-60
2022/10/25 03:13:35;;;;;;;;;;;;;;;;;;5133204;27;19910;-60
2022/10/25 03:16:00;;;;;;;;;;;;;;;;;;5133448;27;19911;-59
2022/10/25 03:18:25;;;;;;;;;;;;;;;;;;5133328;27;20289;-59
2022/10/25 03:20:50;;;;;;;;;;;;;;;;;;5133524;27;19919;-59
2022/10/25 03:23:15;;;;;;;;;;;;;;;;;;5133236;27;19904;-59
2022/10/25 03:25:40;;;;;;;;;;;;;;;;;;5133104;27;20030;-60
2022/10/25 03:28:05;;;;;;;;;;;;;;;;;;5133145;27;19914;-60
2022/10/25 03:30:30;;;;;;;;;;;;;;;;;;5132848;27;20370;-60
2022/10/25 03:32:55;;;;;;;;;;;;;;;;;;5133215;27;19911;-59
2022/10/25 03:35:21;;;;;;;;;;;;;;;;;;5133465;27;19914;-59
2022/10/25 03:37:46;;;;;;;;;;;;;;;;;;5132809;27;19914;-60
2022/10/25 03:40:11;;;;;;;;;;;;;;;;;;5133003;27;20491;-60
2022/10/25 03:42:36;;;;;;;;;;;;;;;;;;5132905;27;19908;-60
2022/10/25 03:45:01;;;;;;;;;;;;;;;;;;5132954;27;19918;-60
2022/10/25 03:47:26;;;;;;;;;;;;;;;;;;5132854;27;19907;-59
2022/10/25 03:49:51;;;;;;;;;;;;;;;;;;5132418;27;20371;-59
2022/10/25 03:52:16;;;;;;;;;;;;;;;;;;5132710;27;19909;-59
2022/10/25 03:54:42;;;;;;;;;;;;;;;;;;5132723;27;20354;-61
2022/10/25 03:57:07;;;;;;;;;;;;;;;;;;5133108;27;19937;-59
2022/10/25 03:59:32;;;;;;;;;;;;;;;;;;5131620;27;19904;-59
2022/10/25 04:01:57;;;;;;;;;;;;;;;;;;5132738;27;19908;-59
2022/10/25 04:04:22;;;;;;;;;;;;;;;;;;5132693;27;19903;-59
2022/10/25 04:06:47;;;;;;;;;;;;;;;;;;5132819;27;19911;-59
2022/10/25 04:09:12;;;;;;;;;;;;;;;;;;5132323;27;19908;-59
2022/10/25 04:11:37;;;;;;;;;;;;;;;;;;5132288;27;20388;-59
2022/10/25 04:14:02;;;;;;;;;;;;;;;;;;5132601;27;19947;-59
2022/10/25 04:16:27;;;;;;;;;;;;;;;;;;5132497;27;20009;-59
2022/10/25 04:18:53;;;;;;;;;;;;;;;;;;5132292;27;19952;-59
2022/10/25 04:21:18;;;;;;;;;;;;;;;;;;5132616;27;19915;-59
2022/10/25 04:23:43;;;;;;;;;;;;;;;;;;5132626;27;19964;-58
2022/10/25 04:26:08;;;;;;;;;;;;;;;;;;5132210;27;19916;-58
2022/10/25 04:28:33;;;;;;;;;;;;;;;;;;5132151;28;20293;-58
2022/10/25 04:30:58;;;;;;;;;;;;;;;;;;5132169;28;20274;-58
2022/10/25 04:33:23;;;;;;;;;;;;;;;;;;5132496;28;19914;-59
2022/10/25 04:35:49;;;;;;;;;;;;;;;;;;5132185;28;20015;-58
2022/10/25 04:38:14;;;;;;;;;;;;;;;;;;5132024;28;19908;-58
2022/10/25 04:40:39;;;;;;;;;;;;;;;;;;5132290;28;19907;-59
2022/10/25 04:43:04;;;;;;;;;;;;;;;;;;5132238;28;19952;-59
2022/10/25 04:45:29;;;;;;;;;;;;;;;;;;5132101;28;20308;-59
2022/10/25 04:47:54;;;;;;;;;;;;;;;;;;5132096;28;20009;-58
2022/10/25 04:50:19;;;;;;;;;;;;;;;;;;5131522;28;19908;-61
2022/10/25 04:52:44;;;;;;;;;;;;;;;;;;5131921;28;19908;-58
2022/10/25 04:55:09;;;;;;;;;;;;;;;;;;5132438;28;20385;-58
2022/10/25 04:57:35;;;;;;;;;;;;;;;;;;5131981;28;19914;-59
2022/10/25 05:00:00;;;;;;;;;;;;;;;;;;5132038;28;19914;-59
2022/10/25 05:02:25;;;;;;;;;;;;;;;;;;5131746;28;19911;-58
2022/10/25 05:04:50;;;;;;;;;;;;;;;;;;5132049;28;19912;-59
2022/10/25 05:07:15;;;;;;;;;;;;;;;;;;5131894;28;20362;-58
2022/10/25 05:09:40;;;;;;;;;;;;;;;;;;5132278;27;19914;-58
2022/10/25 05:12:05;;;;;;;;;;;;;;;;;;5135653;27;19915;-58
2022/10/25 05:14:30;;;;;;;;;;;;;;;;;;5135911;27;20374;-58
2022/10/25 05:16:55;;;;;;;;;;;;;;;;;;5135616;27;19911;-59
2022/10/25 05:19:20;;;;;;;;;;;;;;;;;;5135986;27;20639;-59
2022/10/25 05:21:46;;;;;;;;;;;;;;;;;;5135519;27;20006;-59
2022/10/25 05:24:11;;;;;;;;;;;;;;;;;;5135572;27;19911;-59
2022/10/25 05:26:36;;;;;;;;;;;;;;;;;;5135633;27;19995;-59
2022/10/25 05:29:01;;;;;;;;;;;;;;;;;;5135652;27;19908;-59
2022/10/25 05:31:27;;;;;;;;;;;;;;;;;;5135340;27;20013;-59
2022/10/25 05:33:52;;;;;;;;;;;;;;;;;;5135288;27;19936;-59
2022/10/25 05:36:17;;;;;;;;;;;;;;;;;;5135802;27;19908;-59
2022/10/25 05:38:42;;;;;;;;;;;;;;;;;;5135027;27;19907;-59
2022/10/25 05:41:07;;;;;;;;;;;;;;;;;;5135587;27;19957;-59
2022/10/25 05:43:34;;;;;;;;;;;;;;;;;;5134583;27;20211;-59
2022/10/25 05:45:59;;;;;;;;;;;;;;;;;;5135316;27;19960;-59
2022/10/25 05:48:24;;;;;;;;;;;;;;;;;;5135447;27;19967;-59
2022/10/25 05:50:49;;;;;;;;;;;;;;;;;;5134870;27;19907;-59
2022/10/25 05:53:14;;;;;;;;;;;;;;;;;;5135044;27;19907;-59
2022/10/25 05:55:39;;;;;;;;;;;;;;;;;;5135169;27;19907;-60
2022/10/25 05:58:04;;;;;;;;;;;;;;;;;;5135079;27;20373;-60
2022/10/25 06:00:29;;;;;;;;;;;;;;;;;;5135131;27;19944;-60
2022/10/25 06:02:55;;;;;;;;;;;;;;;;;;5134590;27;19968;-60
2022/10/25 06:05:20;;;;;;;;;;;;;;;;;;5135399;27;19915;-60
2022/10/25 06:07:45;;;;;;;;;;;;;;;;;;5134893;27;20319;-60
2022/10/25 06:10:11;;;;;;;;;;;;;;;;;;5134734;27;19919;-60
2022/10/25 06:12:36;;;;;;;;;;;;;;;;;;5134396;27;19911;-60
2022/10/25 06:15:01;;;;;;;;;;;;;;;;;;5134830;27;20012;-59
2022/10/25 06:17:26;;;;;;;;;;;;;;;;;;5134682;27;20346;-59
2022/10/25 06:19:51;;;;;;;;;;;;;;;;;;5134427;27;19911;-60
2022/10/25 06:22:16;;;;;;;;;;;;;;;;;;5134630;27;19908;-59
2022/10/25 06:24:41;;;;;;;;;;;;;;;;;;5134695;27;19918;-59
2022/10/25 06:27:06;;;;;;;;;;;;;;;;;;5134566;27;20350;-59
2022/10/25 06:29:32;;;;;;;;;;;;;;;;;;5134149;27;19911;-60
2022/10/25 06:31:57;;;;;;;;;;;;;;;;;;5134077;27;20040;-60
2022/10/25 06:34:22;;;;;;;;;;;;;;;;;;5134378;27;19908;-59
2022/10/25 06:36:47;;;;;;;;;;;;;;;;;;5134419;27;19950;-59
2022/10/25 06:39:12;;;;;;;;;;;;;;;;;;5134098;27;19930;-60
2022/10/25 06:41:37;;;;;;;;;;;;;;;;;;5134404;27;19931;-60
2022/10/25 06:44:02;;;;;;;;;;;;;;;;;;5134004;27;19951;-60
2022/10/25 06:46:28;;;;;;;;;;;;;;;;;;5133909;27;20373;-60
2022/10/25 06:48:53;;;;;;;;;;;;;;;;;;5133849;27;19960;-60
2022/10/25 06:51:18;;;;;;;;;;;;;;;;;;5133984;27;20474;-60
2022/10/25 06:53:43;;;;;;;;;;;;;;;;;;5133905;27;19998;-60
2022/10/25 06:56:08;;;;;;;;;;;;;;;;;;5133884;27;19907;-60
2022/10/25 06:58:33;;;;;;;;;;;;;;;;;;5133932;27;19913;-60
2022/10/25 07:00:58;;;;;;;;;;;;;;;;;;5133383;27;19918;-60
2022/10/25 07:03:29;;;;;;;;;;;;;;;;;;5134004;27;20369;-60
2022/10/25 07:05:54;;;;;;;;;;;;;;;;;;5133574;27;20023;-60
2022/10/25 07:08:19;;;;;;;;;;;;;;;;;;5133905;27;19954;-61
2022/10/25 07:10:44;;;;;;;;;;;;;;;;;;5133343;27;20328;-61
2022/10/25 07:13:09;;;;;;;;;;;;;;;;;;5133277;27;19908;-61
2022/10/25 07:15:34;;;;;;;;;;;;;;;;;;5133607;27;19915;-61
2022/10/25 07:17:59;;;;;;;;;;;;;;;;;;5133201;27;19927;-61
2022/10/25 07:20:24;;;;;;;;;;;;;;;;;;5133510;27;20385;-61
2022/10/25 07:22:49;;;;;;;;;;;;;;;;;;5133453;27;20090;-61
2022/10/25 07:25:14;;;;;;;;;;;;;;;;;;5133517;27;20400;-61
2022/10/25 07:27:39;;;;;;;;;;;;;;;;;;5133151;27;19950;-60
2022/10/25 07:30:05;;;;;;;;;;;;;;;;;;5132932;27;19967;-61
2022/10/25 07:32:30;;;;;;;;;;;;;;;;;;5132546;27;19934;-61
2022/10/25 07:34:55;;;;;;;;;;;;;;;;;;5133358;27;20354;-61
2022/10/25 07:37:20;;;;;;;;;;;;;;;;;;5133275;27;19907;-60
2022/10/25 07:39:45;;;;;;;;;;;;;;;;;;5132945;27;20042;-60
2022/10/25 07:42:10;;;;;;;;;;;;;;;;;;5132732;27;19908;-61
2022/10/25 07:44:35;;;;;;;;;;;;;;;;;;5133020;27;19908;-61
2022/10/25 07:47:00;;;;;;;;;;;;;;;;;;5132769;27;20017;-60
2022/10/25 07:49:25;;;;;;;;;;;;;;;;;;5133046;27;19908;-60
2022/10/25 07:51:50;;;;;;;;;;;;;;;;;;5132973;27;19908;-60
2022/10/25 07:54:15;;;;;;;;;;;;;;;;;;5133060;27;20019;-60
2022/10/25 07:56:40;;;;;;;;;;;;;;;;;;5132690;27;19907;-61
2022/10/25 07:59:05;;;;;;;;;;;;;;;;;;5132777;27;20385;-61
2022/10/25 08:01:31;;;;;;;;;;;;;;;;;;5132425;27;19999;-61
2022/10/25 08:03:56;;;;;;;;;;;;;;;;;;5132485;27;19980;-60
2022/10/25 08:06:21;;;;;;;;;;;;;;;;;;5132782;27;19911;-61
2022/10/25 08:08:46;;;;;;;;;;;;;;;;;;5132742;27;19998;-61
2022/10/25 08:11:11;;;;;;;;;;;;;;;;;;5132365;27;20003;-60
2022/10/25 08:13:36;;;;;;;;;;;;;;;;;;5132513;27;19915;-60
2022/10/25 08:16:01;;;;;;;;;;;;;;;;;;5132683;27;19915;-61
2022/10/25 08:18:26;;;;;;;;;;;;;;;;;;5132693;27;19911;-59
2022/10/25 08:20:51;;;;;;;;;;;;;;;;;;5132047;27;19912;-60
2022/10/25 08:23:16;;;;;;;;;;;;;;;;;;5132514;27;20327;-60
2022/10/25 08:25:42;;;;;;;;;;;;;;;;;;5132729;27;19911;-60
2022/10/25 08:28:07;;;;;;;;;;;;;;;;;;5132415;27;19968;-60
2022/10/25 08:30:32;;;;;;;;;;;;;;;;;;5131746;28;19920;-60
2022/10/25 08:32:57;;;;;;;;;;;;;;;;;;5132176;28;19912;-63
2022/10/25 08:35:22;;;;;;;;;;;;;;;;;;5132692;28;20382;-61
2022/10/25 08:37:47;;;;;;;;;;;;;;;;;;5132383;28;19947;-60
2022/10/25 08:40:12;;;;;;;;;;;;;;;;;;5131679;28;19927;-60
2022/10/25 08:42:37;;;;;;;;;;;;;;;;;;5132249;28;19907;-60
2022/10/25 08:45:02;;;;;;;;;;;;;;;;;;5134920;27;19919;-61
2022/10/25 08:47:28;;;;;;;;;;;;;;;;;;5136716;27;19912;-60
2022/10/25 08:49:53;;;;;;;;;;;;;;;;;;5136448;27;19911;-59
2022/10/25 08:52:18;;;;;;;;;;;;;;;;;;5136386;27;20392;-60
2022/10/25 08:54:43;;;;;;;;;;;;;;;;;;5136528;27;20008;-60
2022/10/25 08:57:08;;;;;;;;;;;;;;;;;;5136311;27;19912;-60
2022/10/25 08:59:34;;;;;;;;;;;;;;;;;;5136481;27;19929;-59
2022/10/25 09:01:59;;;;;;;;;;;;;;;;;;5135812;27;19919;-60
2022/10/25 09:04:24;;;;;;;;;;;;;;;;;;5136430;27;19907;-60
2022/10/25 09:06:49;;;;;;;;;;;;;;;;;;5136127;27;19908;-60
2022/10/25 09:09:15;;;;;;;;;;;;;;;;;;5136185;27;19914;-60
2022/10/25 09:11:40;;;;;;;;;;;;;;;;;;5135582;27;19960;-60
2022/10/25 09:14:05;;;;;;;;;;;;;;;;;;5136089;27;20325;-60
2022/10/25 09:16:31;;;;;;;;;;;;;;;;;;5136066;27;19960;-59
2022/10/25 09:18:56;;;;;;;;;;;;;;;;;;5136232;27;19964;-59
2022/10/25 09:21:21;;;;;;;;;;;;;;;;;;5135846;27;19907;-58
2022/10/25 09:23:46;;;;;;;;;;;;;;;;;;5135797;27;19914;-58
2022/10/25 09:26:11;;;;;;;;;;;;;;;;;;5135446;27;20005;-58
2022/10/25 09:28:36;;;;;;;;;;;;;;;;;;5135800;27;19911;-58
2022/10/25 09:31:01;;;;;;;;;;;;;;;;;;5135443;27;19965;-58
2022/10/25 09:33:29;;;;;;;;;;;;;;;;;;5135498;27;19904;-57
2022/10/25 09:35:54;;;;;;;;;;;;;;;;;;5135538;27;19908;-57
2022/10/25 09:38:19;;;;;;;;;;;;;;;;;;5135396;27;19919;-57
2022/10/25 09:40:44;;;;;;;;;;;;;;;;;;5135762;27;20415;-59
2022/10/25 09:43:13;;;;;;;;;;;;;;;;;;5135324;27;19994;-59
2022/10/25 09:45:39;;;;;;;;;;;;;;;;;;5135275;27;19998;-59
2022/10/25 09:48:04;;;;;;;;;;;;;;;;;;5135216;27;20409;-58
2022/10/25 09:50:29;;;;;;;;;;;;;;;;;;5135315;27;20357;-59
2022/10/25 09:52:54;;;;;;;;;;;;;;;;;;5135059;27;19907;-58
2022/10/25 09:55:19;;;;;;;;;;;;;;;;;;5134693;27;19943;-57
2022/10/25 09:57:45;;;;;;;;;;;;;;;;;;5135091;27;19953;-58
2022/10/25 10:00:10;;;;;;;;;;;;;;;;;;5135366;27;20421;-58
2022/10/25 10:02:35;;;;;;;;;;;;;;;;;;5134743;27;19915;-58
2022/10/25 10:05:00;;;;;;;;;;;;;;;;;;5135108;27;19919;-58
2022/10/25 10:07:25;;;;;;;;;;;;;;;;;;5135051;27;19915;-58
2022/10/25 10:09:50;;;;;;;;;;;;;;;;;;5134959;27;19923;-58
2022/10/25 10:12:15;;;;;;;;;;;;;;;;;;5134393;27;19912;-58
2022/10/25 10:14:40;;;;;;;;;;;;;;;;;;5134810;27;19907;-58
2022/10/25 10:17:05;;;;;;;;;;;;;;;;;;5134552;27;19914;-58
2022/10/25 10:19:30;;;;;;;;;;;;;;;;;;5134790;27;19911;-59
2022/10/25 10:21:56;;;;;;;;;;;;;;;;;;5134090;27;19911;-58
2022/10/25 10:24:21;;;;;;;;;;;;;;;;;;5134527;27;19915;-58
2022/10/25 10:26:47;;;;;;;;;;;;;;;;;;5134518;27;19918;-58
2022/10/25 10:29:13;;;;;;;;;;;;;;;;;;5134297;27;20409;-58
2022/10/25 10:31:38;;;;;;;;;;;;;;;;;;5134285;27;19962;-57
2022/10/25 10:34:03;;;;;;;;;;;;;;;;;;5134286;27;19914;-57
2022/10/25 10:36:28;;;;;;;;;;;;;;;;;;5134480;27;20006;-57
2022/10/25 10:38:53;;;;;;;;;;;;;;;;;;5134509;27;19912;-58
2022/10/25 10:41:18;;;;;;;;;;;;;;;;;;5133678;27;19916;-57
2022/10/25 10:43:43;;;;;;;;;;;;;;;;;;5134297;27;19914;-58
2022/10/25 10:46:08;;;;;;;;;;;;;;;;;;5133978;27;19915;-59
2022/10/25 10:48:33;;;;;;;;;;;;;;;;;;5134143;27;20327;-58
2022/10/25 10:50:58;;;;;;;;;;;;;;;;;;5133988;27;20004;-58
2022/10/25 10:53:24;;;;;;;;;;;;;;;;;;5133977;27;19987;-59
2022/10/25 10:55:49;;;;;;;;;;;;;;;;;;5134114;27;19907;-59
2022/10/25 10:58:14;;;;;;;;;;;;;;;;;;5133520;27;19907;-58
2022/10/25 11:00:40;;;;;;;;;;;;;;;;;;5133901;27;19952;-59
2022/10/25 11:03:05;;;;;;;;;;;;;;;;;;5133700;27;20014;-58
2022/10/25 11:05:30;;;;;;;;;;;;;;;;;;5133843;27;19918;-58
2022/10/25 11:07:56;;;;;;;;;;;;;;;;;;5132881;27;19923;-58
2022/10/25 11:10:21;;;;;;;;;;;;;;;;;;5133623;27;19920;-58
2022/10/25 11:12:46;;;;;;;;;;;;;;;;;;5133518;27;19907;-59
2022/10/25 11:15:11;;;;;;;;;;;;;;;;;;5133269;27;20002;-59
2022/10/25 11:17:36;;;;;;;;;;;;;;;;;;5133657;27;20366;-58
2022/10/25 11:20:01;;;;;;;;;;;;;;;;;;5133565;27;19908;-59
2022/10/25 11:22:26;;;;;;;;;;;;;;;;;;5132987;27;19908;-58
2022/10/25 11:24:51;;;;;;;;;;;;;;;;;;5133142;27;19915;-59
2022/10/25 11:27:16;;;;;;;;;;;;;;;;;;5133286;27;20449;-58
2022/10/25 11:29:41;;;;;;;;;;;;;;;;;;5133318;27;19961;-58
2022/10/25 11:32:06;;;;;;;;;;;;;;;;;;5132802;27;19931;-58
2022/10/25 11:34:31;;;;;;;;;;;;;;;;;;5133046;27;19918;-58
2022/10/25 11:36:57;;;;;;;;;;;;;;;;;;5133428;27;19962;-58
2022/10/25 11:39:22;;;;;;;;;;;;;;;;;;5133332;27;19908;-58
2022/10/25 11:41:47;;;;;;;;;;;;;;;;;;5132987;27;19911;-57
2022/10/25 11:44:12;;;;;;;;;;;;;;;;;;5132517;27;20354;-58
2022/10/25 11:46:37;;;;;;;;;;;;;;;;;;5132797;27;19911;-58
2022/10/25 11:49:02;;;;;;;;;;;;;;;;;;5133126;27;19987;-58
2022/10/25 11:51:27;;;;;;;;;;;;;;;;;;5132558;27;19918;-58
2022/10/25 11:53:52;;;;;;;;;;;;;;;;;;5132702;27;20261;-59
2022/10/25 11:56:17;;;;;;;;;;;;;;;;;;5132877;27;19907;-58
2022/10/25 11:58:42;;;;;;;;;;;;;;;;;;5132758;27;19907;-58
2022/10/25 12:01:07;;;;;;;;;;;;;;;;;;5132662;27;19968;-58
2022/10/25 12:03:32;;;;;;;;;;;;;;;;;;5132604;27;19908;-58
2022/10/25 12:05:58;;;;;;;;;;;;;;;;;;5132850;27;19980;-58
2022/10/25 12:08:23;;;;;;;;;;;;;;;;;;5132564;27;19912;-59
2022/10/25 12:10:48;;;;;;;;;;;;;;;;;;5132838;27;19969;-58
2022/10/25 12:13:13;;;;;;;;;;;;;;;;;;5132072;27;19911;-59
2022/10/25 12:15:38;;;;;;;;;;;;;;;;;;5132421;27;19919;-59
2022/10/25 12:18:03;;;;;;;;;;;;;;;;;;5132534;27;20396;-58
2022/10/25 12:20:28;;;;;;;;;;;;;;;;;;5132561;27;19961;-59
2022/10/25 12:22:54;;;;;;;;;;;;;;;;;;5132312;27;19907;-58
2022/10/25 12:25:19;;;;;;;;;;;;;;;;;;5132125;27;19919;-58
2022/10/25 12:27:44;;;;;;;;;;;;;;;;;;5132329;27;20061;-59
2022/10/25 12:30:09;;;;;;;;;;;;;;;;;;5132097;27;19930;-58
2022/10/25 12:32:34;;;;;;;;;;;;;;;;;;5132124;28;19911;-59
2022/10/25 12:34:59;;;;;;;;;;;;;;;;;;5132452;28;19907;-58
2022/10/25 12:37:24;;;;;;;;;;;;;;;;;;5132174;28;20215;-58
2022/10/25 12:39:51;;;;;;;;;;;;;;;;;;5132469;28;19915;-58
2022/10/25 12:42:16;;;;;;;;;;;;;;;;;;5131787;28;19915;-59
2022/10/25 12:44:41;;;;;;;;;;;;;;;;;;5132302;28;20366;-59
2022/10/25 12:47:06;;;;;;;;;;;;;;;;;;5132205;28;19912;-58
2022/10/25 12:49:32;;;;;;;;;;;;;;;;;;5132165;28;19947;-58
2022/10/25 12:51:57;;;;;;;;;;;;;;;;;;5131936;28;19911;-58
2022/10/25 12:54:22;;;;;;;;;;;;;;;;;;5131848;28;19915;-58
2022/10/25 12:56:47;;;;;;;;;;;;;;;;;;5132198;28;20362;-58
2022/10/25 12:59:12;;;;;;;;;;;;;;;;;;5131890;28;19911;-58
2022/10/25 13:01:37;;;;;;;;;;;;;;;;;;5131770;28;19907;-58
2022/10/25 13:04:03;;;;;;;;;;;;;;;;;;5131956;28;19931;-58
2022/10/25 13:06:28;;;;;;;;;;;;;;;;;;5131618;28;19915;-58
2022/10/25 13:08:53;;;;;;;;;;;;;;;;;;5132111;28;19999;-59
2022/10/25 13:11:18;;;;;;;;;;;;;;;;;;5131785;28;19961;-59
2022/10/25 13:13:43;;;;;;;;;;;;;;;;;;5131571;28;19907;-59
2022/10/25 13:16:08;;;;;;;;;;;;;;;;;;5131804;28;20254;-58
2022/10/25 13:18:33;;;;;;;;;;;;;;;;;;5131856;28;19913;-58
2022/10/25 13:20:58;;;;;;;;;;;;;;;;;;5132075;28;19919;-59
2022/10/25 13:23:24;;;;;;;;;;;;;;;;;;5131272;28;19908;-58
2022/10/25 13:25:49;;;;;;;;;;;;;;;;;;5131730;28;19963;-59
2022/10/25 13:28:14;;;;;;;;;;;;;;;;;;5131792;28;20349;-58
2022/10/25 13:30:39;;;;;;;;;;;;;;;;;;5132120;27;19919;-58
2022/10/25 13:33:04;;;;;;;;;;;;;;;;;;5135309;27;19912;-59
2022/10/25 13:35:29;;;;;;;;;;;;;;;;;;5135593;27;19907;-59
2022/10/25 13:37:54;;;;;;;;;;;;;;;;;;5135436;27;19949;-59
2022/10/25 13:40:19;;;;;;;;;;;;;;;;;;5135321;27;20006;-59
2022/10/25 13:42:44;;;;;;;;;;;;;;;;;;5135190;27;19918;-58
2022/10/25 13:45:09;;;;;;;;;;;;;;;;;;5135217;27;19911;-58
2022/10/25 13:47:35;;;;;;;;;;;;;;;;;;5135109;27;19912;-59
2022/10/25 13:50:00;;;;;;;;;;;;;;;;;;5135392;27;20006;-58
2022/10/25 13:52:25;;;;;;;;;;;;;;;;;;5134337;27;19991;-58
2022/10/25 13:54:50;;;;;;;;;;;;;;;;;;5135182;27;19945;-57
2022/10/25 13:57:15;;;;;;;;;;;;;;;;;;5134900;27;20364;-58
2022/10/25 13:59:40;;;;;;;;;;;;;;;;;;5135326;27;19915;-58
2022/10/25 14:02:06;;;;;;;;;;;;;;;;;;5134720;27;19922;-58
2022/10/25 14:04:31;;;;;;;;;;;;;;;;;;5134625;27;20278;-58
2022/10/25 14:06:57;;;;;;;;;;;;;;;;;;5134681;27;20400;-57
2022/10/25 14:09:22;;;;;;;;;;;;;;;;;;5134831;27;19908;-57
2022/10/25 14:11:47;;;;;;;;;;;;;;;;;;5134789;27;19914;-58
2022/10/25 14:14:12;;;;;;;;;;;;;;;;;;5134334;27;19914;-57
2022/10/25 14:16:37;;;;;;;;;;;;;;;;;;5134625;27;19964;-58
2022/10/25 14:19:02;;;;;;;;;;;;;;;;;;5134986;27;20441;-58
2022/10/25 14:21:27;;;;;;;;;;;;;;;;;;5134449;27;20026;-59
2022/10/25 14:23:52;;;;;;;;;;;;;;;;;;5134309;27;20362;-58
2022/10/25 14:26:20;;;;;;;;;;;;;;;;;;5134151;27;20390;-58
2022/10/25 14:28:45;;;;;;;;;;;;;;;;;;5134485;27;19915;-58
2022/10/25 14:31:10;;;;;;;;;;;;;;;;;;5134215;27;19919;-58
2022/10/25 14:33:35;;;;;;;;;;;;;;;;;;5133955;27;19911;-59
2022/10/25 14:36:00;;;;;;;;;;;;;;;;;;5134695;27;19994;-59
2022/10/25 14:38:25;;;;;;;;;;;;;;;;;;5134139;27;19953;-59
2022/10/25 14:40:50;;;;;;;;;;;;;;;;;;5134405;27;19942;-59
2022/10/25 14:43:15;;;;;;;;;;;;;;;;;;5133826;27;19908;-59
2022/10/25 14:45:40;;;;;;;;;;;;;;;;;;5134278;27;19915;-58
2022/10/25 14:48:06;;;;;;;;;;;;;;;;;;5134016;27;19908;-58
2022/10/25 14:50:31;;;;;;;;;;;;;;;;;;5133918;27;19954;-60
2022/10/25 14:52:56;;;;;;;;;;;;;;;;;;5134181;27;19907;-59
2022/10/25 14:55:21;;;;;;;;;;;;;;;;;;5133922;27;19907;-58
2022/10/25 14:57:46;;;;;;;;;;;;;;;;;;5133989;27;20258;-58
2022/10/25 15:00:11;;;;;;;;;;;;;;;;;;5133521;27;19911;-57
2022/10/25 15:02:36;;;;;;;;;;;;;;;;;;5133473;27;19919;-58
2022/10/25 15:05:01;;;;;;;;;;;;;;;;;;5133895;27;19912;-58
2022/10/25 15:07:26;;;;;;;;;;;;;;;;;;5133699;27;19946;-59
2022/10/25 15:09:51;;;;;;;;;;;;;;;;;;5134056;27;19911;-59
2022/10/25 15:12:16;;;;;;;;;;;;;;;;;;5133168;27;20009;-59
2022/10/25 15:14:42;;;;;;;;;;;;;;;;;;5133314;27;19913;-60
2022/10/25 15:17:07;;;;;;;;;;;;;;;;;;5133837;27;19918;-59
2022/10/25 15:19:32;;;;;;;;;;;;;;;;;;5133315;27;19911;-60
2022/10/25 15:21:57;;;;;;;;;;;;;;;;;;5133546;27;20278;-59
2022/10/25 15:24:22;;;;;;;;;;;;;;;;;;5133169;27;19918;-59
2022/10/25 15:26:47;;;;;;;;;;;;;;;;;;5133544;27;19919;-59
2022/10/25 15:29:12;;;;;;;;;;;;;;;;;;5133302;27;19961;-59
2022/10/25 15:31:37;;;;;;;;;;;;;;;;;;5132788;27;20392;-59
2022/10/25 15:34:02;;;;;;;;;;;;;;;;;;5131605;27;19915;-57
2022/10/25 15:36:27;;;;;;;;;;;;;;;;;;5133103;27;19911;-58
2022/10/25 15:38:53;;;;;;;;;;;;;;;;;;5133336;27;20373;-59
2022/10/25 15:41:18;;;;;;;;;;;;;;;;;;5133177;27;19915;-58
2022/10/25 15:43:43;;;;;;;;;;;;;;;;;;5132537;27;20014;-58
2022/10/25 15:46:08;;;;;;;;;;;;;;;;;;5132934;27;19915;-58
2022/10/25 15:48:33;;;;;;;;;;;;;;;;;;5133146;27;19908;-58
2022/10/25 15:50:58;;;;;;;;;;;;;;;;;;5132968;27;19916;-58
2022/10/25 15:53:23;;;;;;;;;;;;;;;;;;5132074;27;19907;-58
2022/10/25 15:55:48;;;;;;;;;;;;;;;;;;5132892;27;19915;-58
2022/10/25 15:58:13;;;;;;;;;;;;;;;;;;5132960;27;19998;-58
2022/10/25 16:00:38;;;;;;;;;;;;;;;;;;5132518;27;19965;-59
2022/10/25 16:03:03;;;;;;;;;;;;;;;;;;5132410;27;20342;-59
2022/10/25 16:05:29;;;;;;;;;;;;;;;;;;5130691;27;19922;-60
2022/10/25 16:07:54;;;;;;;;;;;;;;;;;;5132850;27;19990;-59
2022/10/25 16:10:19;;;;;;;;;;;;;;;;;;5132675;27;19911;-59
2022/10/25 16:12:44;;;;;;;;;;;;;;;;;;5132283;27;20388;-60
2022/10/25 16:15:09;;;;;;;;;;;;;;;;;;5132527;27;19929;-60
2022/10/25 16:17:34;;;;;;;;;;;;;;;;;;5132158;27;19908;-60
2022/10/25 16:19:59;;;;;;;;;;;;;;;;;;5132617;27;19914;-59
2022/10/25 16:22:24;;;;;;;;;;;;;;;;;;5132469;27;20748;-59
2022/10/25 16:24:49;;;;;;;;;;;;;;;;;;5132044;27;20108;-61
2022/10/25 16:27:14;;;;;;;;;;;;;;;;;;5132249;27;19960;-59
2022/10/25 16:29:39;;;;;;;;;;;;;;;;;;5132200;27;19907;-60